createdAt,value
2023-01-26T00:02:00.448Z,100756.03
2023-01-26T00:04:28.085Z,100749.06
2023-01-26T00:06:55.694Z,100744.75
2023-01-26T00:09:23.381Z,100737.75
2023-01-26T00:11:51.365Z,100738.47
2023-01-26T00:14:19.296Z,100748.97
2023-01-26T00:16:46.939Z,100738.47
2023-01-26T00:19:14.567Z,100743.81
2023-01-26T00:21:42.561Z,100737.75
2023-01-26T00:24:10.468Z,100733.44
2023-01-26T00:26:38.103Z,100728.19
2023-01-26T00:29:05.776Z,100728.94
2023-01-26T00:31:33.492Z,100715.81
2023-01-26T00:34:01.526Z,100720.13
2023-01-26T00:36:31.150Z,100713.88
2023-01-26T00:38:58.768Z,100709.47
2023-01-26T00:41:43.960Z,100707.72
2023-01-26T00:44:11.938Z,100706.88
2023-01-26T00:46:39.617Z,100705.00
2023-01-26T00:49:07.211Z,100694.50
2023-01-26T00:51:34.889Z,100690.16
2023-01-26T00:54:02.517Z,100687.50
2023-01-26T00:56:30.826Z,100671.03
2023-01-26T00:58:58.489Z,100668.56
2023-01-26T01:01:26.093Z,100668.66
2023-01-26T01:03:53.669Z,100659.03
2023-01-26T01:06:21.296Z,100651.25
2023-01-26T01:08:49.284Z,100654.72
2023-01-26T01:11:17.008Z,100654.81
2023-01-26T01:13:44.643Z,100651.44
2023-01-26T01:16:12.280Z,100655.88
2023-01-26T01:18:40.239Z,100655.06
2023-01-26T01:21:08.213Z,100656.78
2023-01-26T01:23:35.853Z,100653.28
2023-01-26T01:26:03.502Z,100645.47
2023-01-26T01:28:31.121Z,100650.72
2023-01-26T01:30:58.765Z,100649.88
2023-01-26T01:33:26.846Z,100662.16
2023-01-26T01:35:54.728Z,100645.63
2023-01-26T01:38:22.313Z,100654.44
2023-01-26T01:40:50.759Z,100656.22
2023-01-26T01:43:18.355Z,100652.81
2023-01-26T01:45:45.949Z,100644.13
2023-01-26T01:48:13.583Z,100642.41
2023-01-26T01:50:41.185Z,100639.88
2023-01-26T01:53:09.115Z,100645.13
2023-01-26T01:55:36.676Z,100637.31
2023-01-26T01:58:04.277Z,100634.69
2023-01-26T02:00:32.088Z,100634.69
2023-01-26T02:03:19.773Z,100632.91
2023-01-26T02:05:47.348Z,100618.94
2023-01-26T02:08:14.908Z,100611.97
2023-01-26T02:10:42.670Z,100608.50
2023-01-26T02:13:10.243Z,100605.00
2023-01-26T02:15:38.553Z,100607.69
2023-01-26T02:18:06.116Z,100611.19
2023-01-26T02:20:33.656Z,100608.59
2023-01-26T02:23:01.242Z,100602.44
2023-01-26T02:25:29.284Z,100598.91
2023-01-26T02:27:57.765Z,100596.28
2023-01-26T02:30:25.315Z,100596.22
2023-01-26T02:32:52.933Z,100596.28
2023-01-26T02:35:20.719Z,100589.31
2023-01-26T02:37:48.299Z,100586.69
2023-01-26T02:40:15.950Z,100593.59
2023-01-26T02:42:43.531Z,100590.09
2023-01-26T02:45:11.112Z,100583.94
2023-01-26T02:47:40.804Z,100587.41
2023-01-26T02:50:07.375Z,100593.34
2023-01-26T02:52:35.359Z,100582.88
2023-01-26T02:55:20.606Z,100581.13
2023-01-26T02:57:48.325Z,100595.88
2023-01-26T03:00:15.923Z,100590.66
2023-01-26T03:02:43.890Z,100597.59
2023-01-26T03:05:11.473Z,100582.78
2023-01-26T03:07:39.065Z,100585.34
2023-01-26T03:10:06.709Z,100584.44
2023-01-26T03:12:34.269Z,100573.06
2023-01-26T03:15:19.531Z,100577.44
2023-01-26T03:17:47.116Z,100571.28
2023-01-26T03:20:32.192Z,100573.81
2023-01-26T03:23:17.062Z,100579.94
2023-01-26T03:26:16.902Z,100573.00
2023-01-26T03:28:45.407Z,100580.84
2023-01-26T03:31:13.018Z,100575.53
2023-01-26T03:33:40.662Z,100583.38
2023-01-26T03:36:08.229Z,100576.44
2023-01-26T03:38:36.244Z,100579.03
2023-01-26T03:41:21.472Z,100581.53
2023-01-26T03:44:06.336Z,100579.66
2023-01-26T03:46:51.394Z,100578.78
2023-01-26T03:49:37.819Z,100576.28
2023-01-26T03:52:22.705Z,100581.59
2023-01-26T03:55:07.619Z,100582.56
2023-01-26T03:57:35.398Z,100579.06
2023-01-26T04:00:03.652Z,100577.34
2023-01-26T04:02:48.450Z,100580.81
2023-01-26T04:05:33.454Z,100573.81
2023-01-26T04:08:18.519Z,100575.53
2023-01-26T04:10:47.795Z,100575.53
2023-01-26T04:13:32.940Z,100573.75
2023-01-26T04:16:18.233Z,100579.78
2023-01-26T04:19:03.137Z,100570.09
2023-01-26T04:21:33.494Z,100576.09
2023-01-26T04:24:01.549Z,100574.31
2023-01-26T04:26:34.878Z,100577.78
2023-01-26T04:29:03.075Z,100574.28
2023-01-26T04:31:31.119Z,100576.00
2023-01-26T04:33:58.940Z,100575.03
2023-01-26T04:36:26.606Z,100577.53
2023-01-26T04:38:54.151Z,100579.19
2023-01-26T04:41:21.727Z,100564.25
2023-01-26T04:43:49.314Z,100571.16
2023-01-26T04:46:17.439Z,100567.56
2023-01-26T04:48:45.056Z,100576.16
2023-01-26T04:51:12.802Z,100569.00
2023-01-26T04:53:40.351Z,100572.44
2023-01-26T04:56:09.233Z,100562.81
2023-01-26T04:58:37.343Z,100572.47
2023-01-26T05:01:04.949Z,100569.88
2023-01-26T05:03:32.583Z,100569.00
2023-01-26T05:06:00.168Z,100569.00
2023-01-26T05:08:27.715Z,100562.00
2023-01-26T05:10:55.726Z,100553.28
2023-01-26T05:13:23.604Z,100552.47
2023-01-26T05:15:51.144Z,100557.75
2023-01-26T05:18:18.768Z,100559.53
2023-01-26T05:20:46.364Z,100555.09
2023-01-26T05:23:14.274Z,100554.19
2023-01-26T05:25:41.955Z,100558.50
2023-01-26T05:28:09.552Z,100559.38
2023-01-26T05:30:37.187Z,100563.75
2023-01-26T05:33:04.870Z,100558.50
2023-01-26T05:35:34.261Z,100563.75
2023-01-26T05:38:01.934Z,100563.81
2023-01-26T05:40:29.587Z,100569.09
2023-01-26T05:42:57.155Z,100572.66
2023-01-26T05:45:24.741Z,100572.69
2023-01-26T05:47:52.982Z,100575.31
2023-01-26T05:50:20.625Z,100570.13
2023-01-26T05:52:48.317Z,100573.63
2023-01-26T05:55:15.954Z,100573.72
2023-01-26T05:57:44.018Z,100572.00
2023-01-26T06:00:12.567Z,100575.53
2023-01-26T06:02:40.593Z,100572.97
2023-01-26T06:05:08.221Z,100576.44
2023-01-26T06:07:35.875Z,100577.22
2023-01-26T06:10:03.625Z,100580.53
2023-01-26T06:12:35.870Z,100578.69
2023-01-26T06:15:03.842Z,100582.16
2023-01-26T06:17:31.493Z,100586.41
2023-01-26T06:19:59.438Z,100577.63
2023-01-26T06:22:27.244Z,100582.78
2023-01-26T06:24:55.159Z,100581.81
2023-01-26T06:27:22.752Z,100580.94
2023-01-26T06:29:50.466Z,100581.00
2023-01-26T06:32:18.080Z,100581.09
2023-01-26T06:34:45.719Z,100582.00
2023-01-26T06:37:14.442Z,100576.81
2023-01-26T06:39:42.364Z,100584.81
2023-01-26T06:42:10.267Z,100584.03
2023-01-26T06:44:37.954Z,100584.09
2023-01-26T06:47:05.594Z,100588.50
2023-01-26T06:49:33.704Z,100594.66
2023-01-26T06:52:01.449Z,100595.44
2023-01-26T06:54:29.135Z,100593.75
2023-01-26T06:56:56.764Z,100588.47
2023-01-26T06:59:24.660Z,100594.56
2023-01-26T07:01:52.882Z,100595.44
2023-01-26T07:04:22.452Z,100596.38
2023-01-26T07:06:50.312Z,100599.88
2023-01-26T07:09:17.983Z,100598.16
2023-01-26T07:11:45.738Z,100592.09
2023-01-26T07:14:14.038Z,100587.72
2023-01-26T07:16:41.792Z,100586.78
2023-01-26T07:19:09.588Z,100584.97
2023-01-26T07:21:39.308Z,100578.84
2023-01-26T07:24:08.214Z,100578.78
2023-01-26T07:26:37.098Z,100581.41
2023-01-26T07:29:04.867Z,100580.50
2023-01-26T07:31:32.628Z,100578.69
2023-01-26T07:34:00.324Z,100575.16
2023-01-26T07:36:28.160Z,100584.72
2023-01-26T07:38:56.365Z,100571.59
2023-01-26T07:41:24.079Z,100573.31
2023-01-26T07:43:52.214Z,100581.09
2023-01-26T07:46:20.053Z,100580.16
2023-01-26T07:48:48.124Z,100577.47
2023-01-26T07:51:15.999Z,100580.84
2023-01-26T07:53:44.299Z,100587.69
2023-01-26T07:56:12.070Z,100586.84
2023-01-26T07:58:39.905Z,100587.69
2023-01-26T08:01:07.742Z,100589.47
2023-01-26T08:03:36.345Z,100585.94
2023-01-26T08:06:04.251Z,100595.50
2023-01-26T08:08:32.080Z,100598.16
2023-01-26T08:11:00.800Z,100592.03
2023-01-26T08:13:35.502Z,100589.44
2023-01-26T08:16:04.411Z,100594.59
2023-01-26T08:18:32.559Z,100584.13
2023-01-26T08:21:00.656Z,100603.28
2023-01-26T08:23:28.589Z,100596.19
2023-01-26T08:25:56.544Z,100598.75
2023-01-26T08:28:24.854Z,100606.59
2023-01-26T08:30:52.569Z,100596.09
2023-01-26T08:33:20.625Z,100600.44
2023-01-26T08:35:48.434Z,100603.03
2023-01-26T08:38:16.189Z,100603.84
2023-01-26T08:40:44.999Z,100607.25
2023-01-26T08:43:12.922Z,100606.34
2023-01-26T08:45:40.906Z,100607.22
2023-01-26T08:48:08.904Z,100613.31
2023-01-26T08:50:36.696Z,100619.41
2023-01-26T08:53:04.985Z,100615.06
2023-01-26T08:55:33.286Z,100620.31
2023-01-26T08:58:01.119Z,100622.94
2023-01-26T09:00:28.903Z,100615.97
2023-01-26T09:02:56.825Z,100617.66
2023-01-26T09:05:25.131Z,100619.38
2023-01-26T09:07:52.974Z,100620.19
2023-01-26T09:10:20.935Z,100625.38
2023-01-26T09:12:48.749Z,100627.00
2023-01-26T09:15:16.742Z,100626.00
2023-01-26T09:17:45.301Z,100629.34
2023-01-26T09:20:13.387Z,100627.53
2023-01-26T09:22:41.363Z,100619.56
2023-01-26T09:25:09.399Z,100628.22
2023-01-26T09:27:37.356Z,100621.19
2023-01-26T09:30:05.511Z,100622.81
2023-01-26T09:32:33.629Z,100619.19
2023-01-26T09:35:01.362Z,100620.81
2023-01-26T09:37:29.598Z,100620.63
2023-01-26T09:39:57.537Z,100624.03
2023-01-26T09:42:25.805Z,100625.69
2023-01-26T09:44:53.807Z,100628.19
2023-01-26T09:47:21.599Z,100632.47
2023-01-26T09:49:49.399Z,100626.44
2023-01-26T09:52:17.326Z,100622.94
2023-01-26T09:54:45.976Z,100629.91
2023-01-26T09:57:13.763Z,100621.16
2023-01-26T09:59:41.798Z,100621.16
2023-01-26T10:02:09.745Z,100616.69
2023-01-26T10:04:37.907Z,100621.91
2023-01-26T10:07:05.848Z,100617.53
2023-01-26T10:09:35.235Z,100616.69
2023-01-26T10:12:03.098Z,100609.81
2023-01-26T10:14:30.941Z,100603.78
2023-01-26T10:16:59.009Z,100603.81
2023-01-26T10:19:29.208Z,100603.81
2023-01-26T10:21:57.074Z,100601.16
2023-01-26T10:24:25.554Z,100606.34
2023-01-26T10:26:53.391Z,100605.50
2023-01-26T10:29:21.274Z,100611.59
2023-01-26T10:31:49.614Z,100607.16
2023-01-26T10:34:17.642Z,100606.28
2023-01-26T10:36:45.695Z,100600.19
2023-01-26T10:39:15.505Z,100601.91
2023-01-26T10:41:43.988Z,100601.88
2023-01-26T10:44:12.902Z,100597.47
2023-01-26T10:46:41.580Z,100589.44
2023-01-26T10:49:09.484Z,100599.84
2023-01-26T10:51:37.317Z,100593.69
2023-01-26T10:54:05.239Z,100599.78
2023-01-26T10:56:33.526Z,100585.78
2023-01-26T10:59:02.319Z,100583.91
2023-01-26T11:01:30.424Z,100592.53
2023-01-26T11:03:58.614Z,100585.47
2023-01-26T11:06:26.585Z,100575.78
2023-01-26T11:08:55.476Z,100572.31
2023-01-26T11:11:23.292Z,100568.75
2023-01-26T11:13:51.206Z,100570.56
2023-01-26T11:16:19.213Z,100572.31
2023-01-26T11:18:47.123Z,100568.81
2023-01-26T11:21:17.639Z,100574.00
2023-01-26T11:23:45.670Z,100566.03
2023-01-26T11:26:13.842Z,100564.31
2023-01-26T11:28:42.159Z,100565.09
2023-01-26T11:31:10.311Z,100565.09
2023-01-26T11:33:38.793Z,100574.78
2023-01-26T11:36:06.622Z,100565.97
2023-01-26T11:38:34.623Z,100552.75
2023-01-26T11:41:02.658Z,100558.88
2023-01-26T11:43:30.457Z,100561.38
2023-01-26T11:45:58.963Z,100557.81
2023-01-26T11:48:27.186Z,100554.41
2023-01-26T11:50:55.255Z,100554.41
2023-01-26T11:53:23.565Z,100548.28
2023-01-26T11:55:51.514Z,100545.75
2023-01-26T11:58:19.871Z,100547.44
2023-01-26T12:00:47.932Z,100550.88
2023-01-26T12:03:15.956Z,100548.38
2023-01-26T12:05:43.801Z,100547.59
2023-01-26T12:08:11.954Z,100545.97
2023-01-26T12:10:41.423Z,100539.06
2023-01-26T12:13:09.359Z,100535.59
2023-01-26T12:15:37.314Z,100534.72
2023-01-26T12:18:05.204Z,100537.31
2023-01-26T12:20:33.148Z,100530.31
2023-01-26T12:23:01.716Z,100531.16
2023-01-26T12:25:29.737Z,100530.22
2023-01-26T12:27:57.678Z,100538.97
2023-01-26T12:30:25.920Z,100526.78
2023-01-26T12:32:54.170Z,100521.53
2023-01-26T12:35:22.697Z,100523.22
2023-01-26T12:37:50.784Z,100522.28
2023-01-26T12:40:18.692Z,100517.88
2023-01-26T12:42:46.720Z,100510.00
2023-01-26T12:45:16.881Z,100513.38
2023-01-26T12:47:47.285Z,100504.56
2023-01-26T12:50:15.700Z,100495.75
2023-01-26T12:52:43.643Z,100496.53
2023-01-26T12:55:11.768Z,100493.03
2023-01-26T12:57:40.114Z,100492.13
2023-01-26T13:00:10.578Z,100498.16
2023-01-26T13:02:38.881Z,100499.81
2023-01-26T13:05:08.160Z,100494.63
2023-01-26T13:07:36.221Z,100490.28
2023-01-26T13:10:04.196Z,100485.00
2023-01-26T13:12:33.052Z,100484.00
2023-01-26T13:15:01.190Z,100479.56
2023-01-26T13:17:29.079Z,100484.66
2023-01-26T13:20:00.321Z,100483.69
2023-01-26T13:22:28.401Z,100484.47
2023-01-26T13:24:56.815Z,100490.56
2023-01-26T13:27:24.986Z,100494.03
2023-01-26T13:29:52.828Z,100484.34
2023-01-26T13:32:20.696Z,100496.56
2023-01-26T13:34:48.584Z,100486.94
2023-01-26T13:37:18.201Z,100490.44
2023-01-26T13:39:46.152Z,100492.19
2023-01-26T13:42:14.112Z,100489.56
2023-01-26T13:44:41.971Z,100493.09
2023-01-26T13:47:09.785Z,100497.47
2023-01-26T13:49:38.880Z,100483.44
2023-01-26T13:52:06.800Z,100479.94
2023-01-26T13:54:34.813Z,100487.81
2023-01-26T13:57:02.852Z,100486.88
2023-01-26T13:59:30.943Z,100488.66
2023-01-26T14:01:59.618Z,100494.75
2023-01-26T14:04:27.619Z,100479.94
2023-01-26T14:06:56.571Z,100490.44
2023-01-26T14:09:24.538Z,100488.69
2023-01-26T14:11:52.701Z,100490.44
2023-01-26T14:14:21.353Z,100492.97
2023-01-26T14:16:49.374Z,100489.44
2023-01-26T14:19:17.483Z,100493.81
2023-01-26T14:21:45.466Z,100487.69
2023-01-26T14:24:13.437Z,100486.88
2023-01-26T14:26:42.422Z,100488.66
2023-01-26T14:29:10.293Z,100493.84
2023-01-26T14:31:38.320Z,100493.84
2023-01-26T14:34:06.613Z,100493.84
2023-01-26T14:36:39.317Z,100498.22
2023-01-26T14:39:09.266Z,100496.53
2023-01-26T14:41:38.211Z,100500.94
2023-01-26T14:44:07.730Z,100502.69
2023-01-26T14:46:35.931Z,100503.59
2023-01-26T14:49:06.045Z,100514.16
2023-01-26T14:51:37.242Z,100505.44
2023-01-26T14:54:05.127Z,100513.31
2023-01-26T14:56:33.039Z,100514.19
2023-01-26T14:59:01.118Z,100515.13
2023-01-26T15:01:29.027Z,100521.25
2023-01-26T15:03:58.106Z,100522.16
2023-01-26T15:06:26.467Z,100520.44
2023-01-26T15:08:54.375Z,100516.03
2023-01-26T15:11:39.934Z,100522.16
2023-01-26T15:14:08.297Z,100521.25
2023-01-26T15:16:36.129Z,100525.63
2023-01-26T15:19:04.773Z,100529.97
2023-01-26T15:21:32.943Z,100525.63
2023-01-26T15:24:00.985Z,100526.53
2023-01-26T15:26:30.137Z,100517.81
2023-01-26T15:28:57.941Z,100516.91
2023-01-26T15:31:25.940Z,100529.13
2023-01-26T15:33:54.080Z,100520.31
2023-01-26T15:36:21.945Z,100519.41
2023-01-26T15:38:50.851Z,100515.88
2023-01-26T15:41:18.892Z,100521.06
2023-01-26T15:43:46.744Z,100521.06
2023-01-26T15:46:14.947Z,100519.31
2023-01-26T15:48:42.877Z,100515.78
2023-01-26T15:51:11.399Z,100518.41
2023-01-26T15:53:39.260Z,100511.44
2023-01-26T15:56:07.177Z,100512.31
2023-01-26T15:58:37.013Z,100507.94
2023-01-26T16:01:05.048Z,100513.25
2023-01-26T16:03:33.702Z,100507.06
2023-01-26T16:06:01.525Z,100511.44
2023-01-26T16:08:29.778Z,100518.41
2023-01-26T16:11:00.008Z,100507.94
2023-01-26T16:13:27.884Z,100514.06
2023-01-26T16:15:56.149Z,100513.16
2023-01-26T16:18:24.169Z,100516.69
2023-01-26T16:20:52.050Z,100510.53
2023-01-26T16:23:19.900Z,100506.19
2023-01-26T16:25:47.924Z,100511.47
2023-01-26T16:28:15.668Z,100504.44
2023-01-26T16:30:44.077Z,100507.16
2023-01-26T16:33:12.188Z,100503.66
2023-01-26T16:35:40.073Z,100502.81
2023-01-26T16:38:13.084Z,100502.81
2023-01-26T16:40:41.251Z,100501.03
2023-01-26T16:43:09.108Z,100498.34
2023-01-26T16:45:37.114Z,100502.69
2023-01-26T16:48:05.083Z,100504.41
2023-01-26T16:50:32.852Z,100509.59
2023-01-26T16:53:01.199Z,100506.06
2023-01-26T16:55:29.065Z,100506.94
2023-01-26T16:57:56.828Z,100508.66
2023-01-26T17:00:25.069Z,100502.53
2023-01-26T17:02:52.975Z,100504.22
2023-01-26T17:05:21.849Z,100506.84
2023-01-26T17:07:51.285Z,100511.19
2023-01-26T17:10:22.272Z,100507.66
2023-01-26T17:12:50.165Z,100516.34
2023-01-26T17:15:18.730Z,100511.94
2023-01-26T17:17:47.423Z,100518.84
2023-01-26T17:20:19.415Z,100526.72
2023-01-26T17:22:47.921Z,100524.97
2023-01-26T17:25:17.071Z,100519.63
2023-01-26T17:27:45.303Z,100515.25
2023-01-26T17:30:13.398Z,100517.88
2023-01-26T17:32:41.380Z,100516.13
2023-01-26T17:35:09.344Z,100523.94
2023-01-26T17:37:37.938Z,100524.81
2023-01-26T17:40:05.824Z,100529.19
2023-01-26T17:42:35.361Z,100524.81
2023-01-26T17:45:04.287Z,100525.59
2023-01-26T17:47:32.060Z,100530.91
2023-01-26T17:50:00.100Z,100531.91
2023-01-26T17:52:28.090Z,100533.69
2023-01-26T17:54:56.413Z,100537.25
2023-01-26T17:57:24.298Z,100543.41
2023-01-26T17:59:52.683Z,100536.44
2023-01-26T18:02:20.711Z,100537.38
2023-01-26T18:04:48.998Z,100533.06
2023-01-26T18:07:17.812Z,100534.03
2023-01-26T18:09:45.774Z,100533.19
2023-01-26T18:12:13.626Z,100529.69
2023-01-26T18:14:41.726Z,100535.81
2023-01-26T18:17:09.570Z,100530.50
2023-01-26T18:19:38.277Z,100528.78
2023-01-26T18:22:06.359Z,100530.56
2023-01-26T18:24:34.231Z,100528.78
2023-01-26T18:27:02.133Z,100524.41
2023-01-26T18:29:30.172Z,100526.94
2023-01-26T18:31:58.512Z,100528.66
2023-01-26T18:34:26.386Z,100526.84
2023-01-26T18:36:54.394Z,100527.69
2023-01-26T18:39:22.206Z,100530.28
2023-01-26T18:41:50.592Z,100523.19
2023-01-26T18:44:19.198Z,100524.91
2023-01-26T18:46:47.200Z,100531.91
2023-01-26T18:49:15.048Z,100531.91
2023-01-26T18:51:48.182Z,100522.28
2023-01-26T18:54:16.033Z,100538.84
2023-01-26T18:56:43.915Z,100524.00
2023-01-26T18:59:12.891Z,100517.94
2023-01-26T19:01:40.914Z,100513.59
2023-01-26T19:04:09.223Z,100518.06
2023-01-26T19:06:37.062Z,100525.03
2023-01-26T19:09:05.926Z,100518.91
2023-01-26T19:11:33.895Z,100523.25
2023-01-26T19:14:01.988Z,100518.81
2023-01-26T19:16:29.810Z,100523.94
2023-01-26T19:18:57.656Z,100530.91
2023-01-26T19:21:26.379Z,100515.97
2023-01-26T19:23:54.210Z,100522.13
2023-01-26T19:26:22.435Z,100520.38
2023-01-26T19:28:51.229Z,100513.38
2023-01-26T19:31:19.602Z,100516.88
2023-01-26T19:33:47.994Z,100515.09
2023-01-26T19:36:16.037Z,100515.03
2023-01-26T19:38:43.968Z,100518.50
2023-01-26T19:41:12.505Z,100513.25
2023-01-26T19:43:40.436Z,100517.59
2023-01-26T19:46:12.413Z,100512.41
2023-01-26T19:48:40.695Z,100520.28
2023-01-26T19:51:08.809Z,100521.13
2023-01-26T19:53:36.536Z,100517.59
2023-01-26T19:56:04.625Z,100521.03
2023-01-26T19:58:32.873Z,100526.22
2023-01-26T20:01:00.859Z,100524.41
2023-01-26T20:03:28.650Z,100527.81
2023-01-26T20:05:56.630Z,100526.06
2023-01-26T20:08:24.357Z,100523.50
2023-01-26T20:10:54.151Z,100533.09
2023-01-26T20:13:22.203Z,100523.44
2023-01-26T20:15:50.073Z,100518.19
2023-01-26T20:18:18.722Z,100525.16
2023-01-26T20:20:46.780Z,100517.28
2023-01-26T20:23:15.401Z,100519.81
2023-01-26T20:25:43.371Z,100522.41
2023-01-26T20:28:11.372Z,100512.75
2023-01-26T20:30:39.672Z,100520.56
2023-01-26T20:33:08.015Z,100511.75
2023-01-26T20:35:37.440Z,100509.97
2023-01-26T20:38:05.357Z,100516.88
2023-01-26T20:40:33.149Z,100516.78
2023-01-26T20:43:01.239Z,100505.44
2023-01-26T20:45:29.295Z,100500.19
2023-01-26T20:47:57.471Z,100499.31
2023-01-26T20:50:25.374Z,100501.03
2023-01-26T20:52:53.226Z,100513.19
2023-01-26T20:55:21.088Z,100506.19
2023-01-26T20:57:50.200Z,100513.19
2023-01-26T21:00:19.059Z,100513.25
2023-01-26T21:02:46.834Z,100516.78
2023-01-26T21:05:15.218Z,100503.72
2023-01-26T21:07:43.037Z,100517.75
2023-01-26T21:10:11.392Z,100508.25
2023-01-26T21:12:40.467Z,100513.50
2023-01-26T21:15:08.919Z,100511.75
2023-01-26T21:17:36.789Z,100504.78
2023-01-26T21:20:05.305Z,100510.06
2023-01-26T21:22:33.219Z,100497.78
2023-01-26T21:25:01.824Z,100503.00
2023-01-26T21:27:29.814Z,100502.00
2023-01-26T21:29:57.699Z,100506.28
2023-01-26T21:32:25.540Z,100505.25
2023-01-26T21:34:53.557Z,100501.66
2023-01-26T21:37:23.318Z,100502.41
2023-01-26T21:39:51.189Z,100503.25
2023-01-26T21:42:19.136Z,100498.84
2023-01-26T21:45:04.238Z,100497.88
2023-01-26T21:47:32.798Z,100494.34
2023-01-26T21:50:00.604Z,100493.38
2023-01-26T21:52:45.964Z,100497.63
2023-01-26T21:55:13.777Z,100491.41
2023-01-26T21:57:59.875Z,100493.97
2023-01-26T22:00:27.863Z,100486.03
2023-01-26T22:02:56.718Z,100484.25
2023-01-26T22:05:24.700Z,100478.94
2023-01-26T22:07:52.505Z,100481.56
2023-01-26T22:10:20.958Z,100487.63
2023-01-26T22:12:48.996Z,100492.88
2023-01-26T22:15:16.886Z,100499.75
2023-01-26T22:17:44.837Z,100491.84
2023-01-26T22:20:13.481Z,100491.91
2023-01-26T22:22:41.866Z,100493.66
2023-01-26T22:25:10.217Z,100495.50
2023-01-26T22:27:38.336Z,100498.13
2023-01-26T22:30:06.103Z,100488.47
2023-01-26T22:32:33.941Z,100490.19
2023-01-26T22:35:02.663Z,100487.50
2023-01-26T22:37:30.823Z,100486.59
2023-01-26T22:39:59.394Z,100482.97
2023-01-26T22:42:27.426Z,100490.78
2023-01-26T22:44:55.212Z,100481.97
2023-01-26T22:47:23.147Z,100488.94
2023-01-26T22:49:51.237Z,100489.81
2023-01-26T22:52:19.146Z,100491.47
2023-01-26T22:54:46.956Z,100497.53
2023-01-26T22:57:14.858Z,100494.78
2023-01-26T22:59:44.503Z,100494.78
2023-01-26T23:02:13.809Z,100505.19
2023-01-26T23:04:41.688Z,100495.56
2023-01-26T23:07:09.446Z,100501.63
2023-01-26T23:09:37.136Z,100496.41
2023-01-26T23:12:05.171Z,100497.28
2023-01-26T23:14:33.900Z,100502.69
2023-01-26T23:17:01.721Z,100503.66
2023-01-26T23:19:30.279Z,100502.78
2023-01-26T23:21:58.085Z,100510.69
2023-01-26T23:24:26.188Z,100509.75
2023-01-26T23:26:54.211Z,100511.47
2023-01-26T23:29:21.960Z,100514.09
2023-01-26T23:31:49.714Z,100507.94
2023-01-26T23:34:17.472Z,100513.91
2023-01-26T23:36:45.640Z,100513.84
2023-01-26T23:39:13.638Z,100510.38
2023-01-26T23:41:41.510Z,100505.03
2023-01-26T23:44:09.604Z,100512.88
2023-01-26T23:46:37.987Z,100518.09
2023-01-26T23:49:06.128Z,100512.81
2023-01-26T23:51:33.802Z,100517.16
2023-01-26T23:54:01.579Z,100524.19
2023-01-26T23:56:29.326Z,100522.44
2023-01-26T23:58:56.951Z,100519.84
